My Meet Scores
Kara Brooks, Gymnastics and Cheerleading Academy CT - MyMeetScores.com
Top100 | Top Teams | Upcoming Meets | Completed Meets | Latest | Add Scores | Help| Support | Bookmark and Share

Kara Brooks, Gymnastics and Cheerleading Academy CT
Personal Bests
LevelVault BarsBeamFloorAA
39.2007.900 9.2259.05035.375
48.6008.300 9.1258.15034.175
59.7009.175 9.1509.10036.625
69.3509.125 9.4508.90035.950
79.0500.000 8.4008.90026.350
89.0257.200 8.1008.60032.525
Scores on America's Top 100as of 05.28.2022
Year Level Vault Bars Beam Floor AA
2018 59.700

Click here to view our exclusive Top 100 Collection
Meet Scores
Date Meet Team Session Level Division Vault Bars Beam Floor AA
2022-02-18 Edgewater Classic THE Beach Resort Meet Gymnastics and Cheerleading Academy CT 6 8 D 7.600 6 5.550 7 8.100 2 8.500 4T 29.750 7
2022-01-07 Let's Make a Deal Invitational Gymnastics and Cheerleading Academy CT A09 8 Quarter 9.025 2 7.200 5 7.700 6 8.600 5 32.525 5
2021-12-17 2021 Pennsylvania Judges Cup Gymnastics and Cheerleading Academy CT 1 8 15 & Older 8.025 1 7.000 5 0.000 5 8.425 3T 23.450 5
2021-12-17 2021 Pennsylvania Judges Cup Gymnastics and Cheerleading Academy CT 1 8 15 Older 8.025 1 7.000 5 0.000 5 8.425 3T 23.450 5
2021-12-03 Rhode Island Invitational Gymnastics and Cheerleading Academy CT GS1 8 Sr B 8.875 2T 6.250 26T 7.650 29T 8.000 30 30.775 25T
2020-01-17 Crimson Classic 2020 Gymnastics and Cheerleading Academy CT 4A 7 D 8.750 6 0.000 10 0.000 10 0.000 10 8.750 10
2020-01-10 Little Boston Invitational Gymnastics and Cheerleading Academy CT C01 7 SR 8.950 6 0.000 16 0.000 16 0.000 16T 8.950 16
2019-12-06 Rhode Island Invitational Gymnastics and Cheerleading Academy CT WS2 7 senior 9.050 2 0.000 10 8.400 5 8.900 5T 26.350 9
2019-03-23 2019 Connecticut Level 6 State Championship Gymnastics and Cheerleading Academy CT 3 6 Sr D 9.350 2 8.250 8 9.450 1 8.900 11 35.950 3
2019-02-16 Chelsea Piers Winter Challenge Gymnastics and Cheerleading Academy CT C1 6 Older 9.200 1 8.275 6 9.025 8T 8.600 14 35.100 3T
2019-01-18 DGS Northeast Invite Gymnastics and Cheerleading Academy CT 1B 6 Sr A 0.000 8 8.800 1 6.000 8 0.000 8 14.800 8
2018-11-30 Rhode Island Invitational Gymnastics and Cheerleading Academy CT WF3 6 Senior 8.150 9 9.125 4 8.275 9 8.600 9 34.150 8
2018-11-10 2018 Turkey Tumble Gymnastics and Cheerleading Academy CT 4 6 All 8.750 2 8.300 1 9.325 1 8.600 3 34.975 1
2018-03-24 2018 CT Level 3 State Cup & Level 6 State Championships Gymnastics and Cheerleading Academy CT 3 6 Sr A 9.325 2T 8.200 12 8.675 10 8.400 16 34.600 11
2018-02-03 Level 4 & 5 States Gymnastics and Cheerleading Academy CT 6 5 13 up 9.700 1 8.150 22 8.450 25T 9.000 13T 35.300 9
2018-01-26 2018 American Invitational Gymnastics and Cheerleading Academy CT 7B 5 Older 9.200 2 9.175 1 9.150 2 9.100 4 36.625 1
2018-01-19 Kinetic Kids Invitational Gymnastics and Cheerleading Academy CT 7 5 Older 9.000 3 9.100 1 8.550 5T 9.100 2 35.750 3
2017-11-30 Rhode Island Invitational Gymnastics and Cheerleading Academy CT SU1 5 Senior 9.100 2 7.850 5 8.750 2 8.450 6 34.150 3
2017-11-10 2017 Phs Turkey Tumble Gymnastics and Cheerleading Academy CT 2 5 Sr B 8.800 6 7.600 6T 7.850 9 8.625 6 32.875 8
2017-01-22 TNT Gymnastics Polly's School of Gymnastics 1 4 *** 8.600 43T 8.300 12T 9.125 9 8.150 38T 34.175 17
2016-04-02 2016 Connecticut Level 6 States & Level 3 State Cup Polly's School of Gymnastics 1 3 N/A 9.200 18T 7.900 44T 9.225 9 9.050 20T 35.375 20
Get your scores on
a t-shirt, pin, or hoodie